Time;durP1;ratioP1;P1;durP2;ratioP2;P2;SDS_P1;SDS_P2;PMS_P1;PMS_P2;Temp;Humidity;BMP_temperature;BMP_pressure;BME280_temperature;BME280_humidity;BME280_pressure;Samples;Min_cycle;Max_cycle;Signal;HPM_P1;HPM_P2
2024/01/27 00:00:16;;;;;;;0.90;0.90;;;;;;;4.35;100.00;100670.38;5025982;28;20199;-75
2024/01/27 00:02:43;;;;;;;1.17;1.17;;;;;;;4.35;100.00;100660.13;4993319;28;20204;-77
2024/01/27 00:05:10;;;;;;;1.13;1.13;;;;;;;4.58;100.00;100698.88;5033178;28;20215;-76
2024/01/27 00:07:37;;;;;;;0.80;0.80;;;;;;;4.49;100.00;100700.19;5032828;28;20215;-76
2024/01/27 00:10:05;;;;;;;1.03;1.03;;;;;;;4.45;100.00;100677.75;5033614;28;20606;-75
2024/01/27 00:12:33;;;;;;;1.37;1.13;;;;;;;4.49;100.00;100689.91;5028745;28;20204;-76
2024/01/27 00:15:00;;;;;;;0.60;0.60;;;;;;;4.17;100.00;100625.00;5033136;28;20228;-76
2024/01/27 00:17:27;;;;;;;1.50;1.50;;;;;;;4.48;100.00;100692.44;4998678;28;20203;-74
2024/01/27 00:19:54;;;;;;;1.17;1.17;;;;;;;4.41;100.00;100665.56;5033501;28;20280;-74
2024/01/27 00:22:21;;;;;;;1.20;1.20;;;;;;;4.47;100.00;100672.69;4981492;28;20208;-75
2024/01/27 00:24:48;;;;;;;1.63;1.63;;;;;;;4.53;100.00;100660.13;5033313;28;20246;-76
2024/01/27 00:27:15;;;;;;;0.80;0.80;;;;;;;4.59;100.00;100674.97;5033411;28;20207;-76
2024/01/27 00:29:43;;;;;;;0.93;0.93;;;;;;;4.70;100.00;100673.78;5032905;28;20660;-76
2024/01/27 00:32:10;;;;;;;1.93;1.83;;;;;;;4.66;100.00;100661.63;5033111;28;20212;-76
2024/01/27 00:34:37;;;;;;;2.30;2.10;;;;;;;4.69;100.00;100664.31;5033179;28;20685;-76
2024/01/27 00:37:03;;;;;;;0.73;0.73;;;;;;;4.59;100.00;100639.00;5033290;28;20660;-76
2024/01/27 00:39:32;;;;;;;0.87;0.87;;;;;;;4.48;100.00;100623.09;5031001;28;20590;-75
2024/01/27 00:41:59;;;;;;;0.67;0.67;;;;;;;4.74;100.00;100662.88;4997680;28;20195;-75
2024/01/27 00:44:26;;;;;;;0.70;0.70;;;;;;;4.84;100.00;100657.34;5031557;28;20210;-75
2024/01/27 00:46:54;;;;;;;0.70;0.70;;;;;;;4.72;100.00;100631.06;5033104;28;20203;-76
2024/01/27 00:49:21;;;;;;;1.17;1.10;;;;;;;4.90;100.00;100655.06;5033155;28;20290;-75
2024/01/27 00:51:48;;;;;;;1.13;1.13;;;;;;;4.13;100.00;100533.28;5032719;28;20695;-74
2024/01/27 00:54:14;;;;;;;0.90;0.90;;;;;;;4.83;100.00;100647.88;5032805;28;20229;-75
2024/01/27 00:56:41;;;;;;;1.03;1.03;;;;;;;4.55;100.00;100602.03;5030599;28;20212;-74
2024/01/27 00:59:08;;;;;;;1.63;1.63;;;;;;;4.92;100.00;100649.16;5014015;28;20590;-74
2024/01/27 01:01:35;;;;;;;1.00;1.00;;;;;;;4.79;100.00;100610.88;5032227;28;20204;-75
2024/01/27 01:04:03;;;;;;;0.60;0.60;;;;;;;4.72;100.00;100593.44;5032697;28;20200;-75
2024/01/27 01:06:30;;;;;;;3.23;2.93;;;;;;;4.61;100.00;100586.03;5032381;28;20200;-76
2024/01/27 01:08:57;;;;;;;0.90;0.90;;;;;;;3.59;100.00;100395.59;5032391;28;20221;-76
2024/01/27 01:11:24;;;;;;;0.60;0.60;;;;;;;5.02;100.00;100634.19;5032109;28;20204;-76
2024/01/27 01:13:50;;;;;;;0.90;0.90;;;;;;;4.99;100.00;100634.94;5032486;28;20295;-77
2024/01/27 01:16:17;;;;;;;0.80;0.80;;;;;;;4.37;100.00;100521.59;5030176;28;20675;-75
2024/01/27 01:18:44;;;;;;;0.70;0.70;;;;;;;4.99;100.00;100624.66;5013569;28;20207;-77
2024/01/27 01:21:12;;;;;;;1.97;1.87;;;;;;;4.67;100.00;100565.78;5032293;28;20219;-76
2024/01/27 01:23:39;;;;;;;0.70;0.70;;;;;;;4.46;100.00;100539.97;5030609;28;20201;-75
2024/01/27 01:26:06;;;;;;;0.70;0.70;;;;;;;4.76;100.00;100579.03;5032059;28;20214;-75
2024/01/27 01:28:33;;;;;;;0.90;0.90;;;;;;;4.98;100.00;100608.38;5031339;28;20208;-75
2024/01/27 01:30:59;;;;;;;3.90;3.53;;;;;;;4.86;100.00;100586.34;5032023;28;20231;-76
2024/01/27 01:33:26;;;;;;;0.90;0.90;;;;;;;4.49;100.00;100530.72;5031977;28;20200;-76
2024/01/27 01:35:53;;;;;;;0.80;0.80;;;;;;;4.98;100.00;100615.19;5031929;28;20328;-76
2024/01/27 01:38:21;;;;;;;0.80;0.80;;;;;;;4.70;100.00;100565.94;5031769;28;20204;-75
2024/01/27 01:40:48;;;;;;;0.70;0.70;;;;;;;4.58;100.00;100558.53;5031403;28;20207;-75
2024/01/27 01:43:15;;;;;;;0.70;0.70;;;;;;;4.85;100.00;100611.16;5031985;28;20211;-75
2024/01/27 01:45:42;;;;;;;0.90;0.90;;;;;;;4.55;100.00;100568.66;5031460;28;20196;-74
2024/01/27 01:48:08;;;;;;;0.70;0.70;;;;;;;4.80;100.00;100622.94;5031580;28;20200;-75
2024/01/27 01:50:36;;;;;;;0.70;0.70;;;;;;;4.56;100.00;100582.38;5031738;28;20204;-76
2024/01/27 01:53:03;;;;;;;0.73;0.73;;;;;;;4.58;100.00;100583.31;5031602;28;20215;-74
2024/01/27 01:55:31;;;;;;;0.80;0.80;;;;;;;4.83;100.00;100606.78;5031182;28;20228;-76
2024/01/27 01:57:58;;;;;;;1.30;1.20;;;;;;;4.47;100.00;100545.19;5031978;28;20222;-76
2024/01/27 02:00:25;;;;;;;0.73;0.73;;;;;;;4.73;100.00;100596.88;5031649;28;20605;-75
2024/01/27 02:02:52;;;;;;;0.83;0.83;;;;;;;4.81;100.00;100603.25;5031761;28;20649;-76
2024/01/27 02:05:19;;;;;;;0.67;0.67;;;;;;;4.35;100.00;100513.81;4996575;28;20200;-76
2024/01/27 02:07:46;;;;;;;0.70;0.70;;;;;;;4.88;100.00;100605.31;5031067;28;20204;-74
2024/01/27 02:10:17;;;;;;;1.87;1.77;;;;;;;4.97;100.00;100608.28;5031047;28;20630;-76
2024/01/27 02:12:45;;;;;;;10.60;1.20;;;;;;;4.94;100.00;100605.56;5030248;28;20575;-76
2024/01/27 02:15:13;;;;;;;0.70;0.70;;;;;;;5.02;100.00;100598.22;5030817;28;20235;-75
2024/01/27 02:17:41;;;;;;;1.00;1.00;;;;;;;4.91;100.00;100579.75;5031222;28;20619;-76
2024/01/27 02:20:08;;;;;;;0.60;0.60;;;;;;;4.95;100.00;100571.38;5031000;28;20203;-76
2024/01/27 02:22:35;;;;;;;0.80;0.80;;;;;;;3.48;100.00;100310.53;5030885;28;20200;-75
2024/01/27 02:25:05;;;;;;;0.70;0.70;;;;;;;5.12;100.00;100580.72;5031109;28;20215;-76
2024/01/27 02:27:32;;;;;;;0.90;0.90;;;;;;;4.98;100.00;100568.94;5031213;28;20195;-76
2024/01/27 02:29:58;;;;;;;0.80;0.80;;;;;;;5.05;100.00;100578.69;5030574;28;20251;-76
2024/01/27 02:32:25;;;;;;;0.70;0.70;;;;;;;5.01;100.00;100576.78;5030729;28;20208;-76
2024/01/27 02:34:52;;;;;;;0.90;0.90;;;;;;;5.09;100.00;100569.41;5030865;28;20227;-77
2024/01/27 02:37:19;;;;;;;1.17;1.17;;;;;;;5.14;100.00;100576.50;5030898;28;20216;-76
2024/01/27 02:39:46;;;;;;;0.77;0.77;;;;;;;5.23;100.00;100569.22;5030848;28;20208;-76
2024/01/27 02:42:14;;;;;;;0.90;0.90;;;;;;;5.26;100.00;100566.78;5030577;28;20289;-77
2024/01/27 02:44:41;;;;;;;0.80;0.80;;;;;;;5.29;100.00;100574.59;5030157;28;20211;-77
2024/01/27 02:47:07;;;;;;;0.80;0.80;;;;;;;5.23;100.00;100558.94;5030786;28;20207;-76
2024/01/27 02:49:34;;;;;;;0.90;0.90;;;;;;;5.28;100.00;100529.13;5030601;28;20199;-76
2024/01/27 02:52:01;;;;;;;3.23;2.93;;;;;;;5.25;100.00;100511.03;5030852;28;20200;-76
2024/01/27 02:54:28;;;;;;;0.80;0.80;;;;;;;5.44;100.00;100534.16;5030607;28;20224;-76
2024/01/27 02:56:55;;;;;;;0.80;0.80;;;;;;;5.37;100.00;100516.69;5030442;28;20680;-75
2024/01/27 02:59:23;;;;;;;0.90;0.90;;;;;;;5.25;100.00;100462.19;5030696;28;20671;-75
2024/01/27 03:01:49;;;;;;;0.97;0.97;;;;;;;5.07;100.00;100457.94;5030564;28;20211;-75
2024/01/27 03:04:16;;;;;;;0.90;0.90;;;;;;;5.50;100.00;100513.81;5023161;28;20212;-76
2024/01/27 03:06:43;;;;;;;1.00;1.00;;;;;;;4.67;100.00;100342.38;4997698;28;20210;-76
2024/01/27 03:09:10;;;;;;;0.70;0.70;;;;;;;5.14;100.00;100412.00;5037003;28;20600;-75
2024/01/27 03:11:37;;;;;;;0.90;0.90;;;;;;;5.65;100.00;100520.41;5036978;28;20253;-75
2024/01/27 03:14:04;;;;;;;0.83;0.83;;;;;;;5.74;100.00;100518.25;5036913;28;20195;-75
2024/01/27 03:16:32;;;;;;;0.80;0.80;;;;;;;5.74;100.00;100523.38;5036682;28;20227;-75
2024/01/27 03:18:59;;;;;;;1.07;1.07;;;;;;;5.60;100.00;100493.66;5036786;28;20203;-74
2024/01/27 03:21:26;;;;;;;0.70;0.70;;;;;;;4.67;99.79;100327.84;5036661;28;20211;-75
2024/01/27 03:23:53;;;;;;;0.67;0.67;;;;;;;5.80;100.00;100508.19;5037712;28;20200;-76
2024/01/27 03:26:19;;;;;;;0.70;0.70;;;;;;;5.56;100.00;100460.91;5037720;28;20541;-76
2024/01/27 03:28:46;;;;;;;0.80;0.80;;;;;;;5.79;100.00;100502.16;5037815;28;20204;-76
2024/01/27 03:31:13;;;;;;;2.03;1.33;;;;;;;5.56;100.00;100461.78;5036961;28;20204;-76
2024/01/27 03:33:41;;;;;;;0.80;0.80;;;;;;;5.88;100.00;100517.13;5036905;28;20207;-77
2024/01/27 03:36:11;;;;;;;0.90;0.90;;;;;;;5.93;100.00;100506.19;5037095;28;20232;-76
2024/01/27 03:38:38;;;;;;;1.30;1.30;;;;;;;5.83;99.96;100498.00;5036892;28;20261;-76
2024/01/27 03:41:05;;;;;;;0.70;0.70;;;;;;;5.77;100.00;100472.94;5037183;28;20199;-77
2024/01/27 03:43:35;;;;;;;0.90;0.90;;;;;;;5.89;99.35;100465.72;5036379;28;20200;-76
2024/01/27 03:46:02;;;;;;;1.00;1.00;;;;;;;5.56;99.45;100419.75;5036085;28;20691;-76
2024/01/27 03:48:29;;;;;;;0.60;0.60;;;;;;;6.02;99.69;100494.53;5036623;28;20734;-77
2024/01/27 03:50:57;;;;;;;0.83;0.83;;;;;;;6.03;100.00;100489.41;5036536;28;20196;-77
2024/01/27 03:53:24;;;;;;;0.80;0.80;;;;;;;6.08;99.76;100485.34;5036661;28;20208;-75
2024/01/27 03:55:51;;;;;;;0.80;0.80;;;;;;;5.94;99.46;100453.03;5036496;28;20216;-74
2024/01/27 03:58:18;;;;;;;0.90;0.90;;;;;;;6.29;98.44;100477.56;5036307;28;20204;-74
2024/01/27 04:00:45;;;;;;;0.80;0.80;;;;;;;6.33;97.54;100464.88;5036770;28;20200;-75
2024/01/27 04:03:11;;;;;;;0.70;0.70;;;;;;;5.24;98.11;100272.81;5036990;28;20212;-76
2024/01/27 04:05:38;;;;;;;0.90;0.90;;;;;;;6.37;97.04;100450.41;5037029;28;20208;-75
2024/01/27 04:08:07;;;;;;;0.80;0.80;;;;;;;6.00;97.14;100370.91;5036985;28;20204;-76
2024/01/27 04:10:34;;;;;;;0.70;0.70;;;;;;;6.09;97.04;100384.16;5017263;28;20204;-76
2024/01/27 04:13:01;;;;;;;2.37;2.17;;;;;;;6.47;96.36;100437.06;5036408;28;20199;-75
2024/01/27 04:15:28;;;;;;;0.90;0.90;;;;;;;6.54;96.13;100448.44;5036157;28;20243;-76
2024/01/27 04:17:55;;;;;;;0.70;0.70;;;;;;;6.46;96.16;100432.72;5036052;28;20218;-76
2024/01/27 04:20:22;;;;;;;0.90;0.90;;;;;;;6.59;95.28;100449.50;5033059;28;20288;-76
2024/01/27 04:22:49;;;;;;;0.80;0.80;;;;;;;6.62;95.97;100439.31;5033327;28;20210;-76
2024/01/27 04:25:17;;;;;;;0.87;0.87;;;;;;;6.67;96.38;100438.66;5033030;28;20203;-75
2024/01/27 04:27:44;;;;;;;0.70;0.70;;;;;;;6.74;95.94;100444.91;5033049;28;20233;-76
2024/01/27 04:30:12;;;;;;;1.10;1.10;;;;;;;6.21;95.09;100363.97;5032724;28;20204;-75
2024/01/27 04:32:39;;;;;;;0.80;0.80;;;;;;;6.69;95.15;100449.91;5032941;28;20629;-76
2024/01/27 04:35:10;;;;;;;0.80;0.80;;;;;;;6.78;94.16;100444.19;5032851;28;20281;-77
2024/01/27 04:37:37;;;;;;;0.83;0.83;;;;;;;6.71;94.07;100444.78;5032982;28;20203;-76
2024/01/27 04:40:05;;;;;;;0.90;0.90;;;;;;;6.69;93.65;100446.44;5033067;28;20204;-74
2024/01/27 04:42:33;;;;;;;0.70;0.70;;;;;;;6.34;92.91;100391.06;5032914;28;20291;-76
2024/01/27 04:45:00;;;;;;;8.33;0.90;;;;;;;6.70;92.57;100443.06;5030723;28;20203;-76
2024/01/27 04:47:27;;;;;;;0.80;0.80;;;;;;;6.44;93.02;100404.34;5032700;28;20204;-76
2024/01/27 04:49:54;;;;;;;1.00;1.00;;;;;;;6.66;92.00;100438.59;5032827;28;20652;-76
2024/01/27 04:52:22;;;;;;;1.20;1.10;;;;;;;6.69;91.70;100441.28;5032563;28;20207;-75
2024/01/27 04:54:48;;;;;;;1.13;1.13;;;;;;;6.74;89.85;100426.88;5032639;28;20210;-75
2024/01/27 04:57:15;;;;;;;0.87;0.87;;;;;;;6.78;89.16;100431.28;5031417;28;20204;-75
2024/01/27 04:59:43;;;;;;;0.80;0.80;;;;;;;6.42;88.69;100367.34;5032469;28;20201;-75
2024/01/27 05:02:10;;;;;;;1.20;1.20;;;;;;;6.47;86.74;100383.84;5031173;28;20200;-74
2024/01/27 05:04:38;;;;;;;0.97;0.97;;;;;;;6.83;84.26;100425.50;5032285;28;20212;-75
2024/01/27 05:07:05;;;;;;;1.00;1.00;;;;;;;6.82;82.84;100430.59;5032216;28;20246;-75
2024/01/27 05:09:32;;;;;;;0.80;0.80;;;;;;;7.00;82.01;100433.81;5032015;28;20228;-81
2024/01/27 05:12:00;;;;;;;0.70;0.70;;;;;;;7.09;79.53;100429.00;5034784;28;20293;-82
2024/01/27 05:14:27;;;;;;;0.90;0.90;;;;;;;7.09;79.04;100439.31;5035123;28;20204;-82
2024/01/27 05:16:55;;;;;;;1.57;1.23;;;;;;;7.18;77.63;100439.59;5036901;28;20228;-83
2024/01/27 05:19:22;;;;;;;0.63;0.63;;;;;;;7.03;77.56;100423.59;4985508;28;20200;-80
2024/01/27 05:21:49;;;;;;;13.73;1.93;;;;;;;7.14;75.99;100436.84;5032722;28;20197;-81
2024/01/27 05:24:16;;;;;;;0.80;0.80;;;;;;;7.13;76.09;100427.38;4994169;28;20205;-78
2024/01/27 05:26:42;;;;;;;0.70;0.70;;;;;;;6.84;75.67;100380.00;5030174;28;20208;-83
2024/01/27 05:29:09;;;;;;;1.23;1.23;;;;;;;7.13;75.84;100424.81;5036220;28;20200;-81
2024/01/27 05:31:36;;;;;;;0.70;0.70;;;;;;;6.96;77.17;100401.00;5033479;28;20232;-81
2024/01/27 05:34:04;;;;;;;0.80;0.80;;;;;;;7.01;76.85;100412.38;5034578;28;20200;-80
2024/01/27 05:36:31;;;;;;;1.30;1.20;;;;;;;7.01;78.20;100430.41;5044644;28;20285;-80
2024/01/27 05:38:58;;;;;;;0.80;0.80;;;;;;;7.02;78.81;100427.03;5049414;28;20200;-81
2024/01/27 05:41:28;;;;;;;0.60;0.60;;;;;;;7.24;80.43;100444.09;5049433;28;20200;-79
2024/01/27 05:43:56;;;;;;;0.80;0.80;;;;;;;7.18;82.46;100447.34;5048498;28;20557;-81
2024/01/27 05:46:24;;;;;;;0.60;0.60;;;;;;;6.92;83.39;100412.06;4998916;28;20200;-80
2024/01/27 05:48:53;;;;;;;0.77;0.77;;;;;;;6.96;84.17;100425.09;5049186;28;20204;-80
2024/01/27 05:51:23;;;;;;;10.07;1.50;;;;;;;6.79;87.50;100405.59;5049850;28;20204;-81
2024/01/27 05:53:50;;;;;;;1.23;1.23;;;;;;;6.94;89.20;100444.81;5031117;28;20672;-80
2024/01/27 05:56:17;;;;;;;1.70;1.70;;;;;;;6.84;92.14;100445.31;5012939;28;21361;-80
2024/01/27 05:58:44;;;;;;;0.70;0.70;;;;;;;6.75;94.76;100446.66;5034438;28;20231;-78
2024/01/27 06:01:11;;;;;;;0.70;0.70;;;;;;;6.73;99.68;100448.31;5032080;28;20208;-79
2024/01/27 06:03:53;;;;;;;0.90;0.90;;;;;;;6.77;100.00;100457.91;5109507;27;21111;-81
2024/01/27 06:06:20;;;;;;;1.63;1.53;;;;;;;6.71;100.00;100449.94;5109137;28;20217;-76
2024/01/27 06:08:46;;;;;;;1.10;1.10;;;;;;;6.59;100.00;100445.25;5108820;28;20210;-78
2024/01/27 06:11:13;;;;;;;0.67;0.67;;;;;;;6.43;100.00;100464.38;5107904;28;20645;-74
2024/01/27 06:13:41;;;;;;;1.20;1.20;;;;;;;6.33;100.00;100427.94;5108433;28;20228;-76
2024/01/27 06:16:09;;;;;;;0.80;0.80;;;;;;;6.47;100.00;100443.09;5108199;28;20601;-75
2024/01/27 06:18:36;;;;;;;0.90;0.90;;;;;;;6.46;100.00;100456.78;5107881;28;20286;-73
2024/01/27 06:21:06;;;;;;;0.73;0.73;;;;;;;6.25;100.00;100426.75;5107744;28;20268;-75
2024/01/27 06:23:33;;;;;;;1.40;1.33;;;;;;;6.45;100.00;100452.47;5099083;28;20213;-77
2024/01/27 06:26:00;;;;;;;2.57;2.03;;;;;;;6.21;100.00;100441.22;5107725;28;20193;-77
2024/01/27 06:28:27;;;;;;;0.73;0.73;;;;;;;6.35;100.00;100450.34;5107929;28;20194;-76
2024/01/27 06:30:54;;;;;;;0.80;0.80;;;;;;;6.35;100.00;100459.78;5108480;28;20267;-75
2024/01/27 06:33:21;;;;;;;0.87;0.87;;;;;;;5.82;100.00;100385.63;5106598;28;20201;-74
2024/01/27 06:35:47;;;;;;;0.70;0.70;;;;;;;5.92;100.00;100421.22;5108764;28;20194;-74
2024/01/27 06:38:16;;;;;;;0.67;0.67;;;;;;;6.03;100.00;100444.81;5104960;28;20507;-77
2024/01/27 06:40:42;;;;;;;0.83;0.83;;;;;;;6.07;100.00;100444.97;5106431;28;20664;-76
2024/01/27 06:43:13;;;;;;;0.97;0.97;;;;;;;6.03;100.00;100419.94;5082446;28;20218;-72
2024/01/27 06:45:40;;;;;;;0.83;0.83;;;;;;;5.89;100.00;100418.50;5094309;28;20692;-73
2024/01/27 06:48:08;;;;;;;1.13;1.13;;;;;;;5.94;100.00;100419.59;5103825;28;20246;-74
2024/01/27 06:50:34;;;;;;;0.80;0.80;;;;;;;5.87;100.00;100404.72;5061354;28;20206;-73
2024/01/27 06:53:02;;;;;;;3.33;3.03;;;;;;;5.17;100.00;100296.50;5087541;28;20201;-72
2024/01/27 06:55:30;;;;;;;1.00;1.00;;;;;;;5.86;100.00;100410.69;5106932;28;20189;-73
2024/01/27 06:57:57;;;;;;;1.00;1.00;;;;;;;5.83;100.00;100431.13;5094294;28;20213;-73
2024/01/27 07:00:24;;;;;;;0.70;0.70;;;;;;;5.43;100.00;100347.25;5102997;28;20669;-75
2024/01/27 07:02:50;;;;;;;0.77;0.77;;;;;;;5.89;100.00;100431.38;5102052;28;20231;-74
2024/01/27 07:05:17;;;;;;;0.90;0.90;;;;;;;5.82;100.00;100437.94;5106849;28;20224;-73
2024/01/27 07:07:44;;;;;;;1.00;1.00;;;;;;;5.72;100.00;100380.94;5098694;28;20216;-74
2024/01/27 07:10:11;;;;;;;0.90;0.90;;;;;;;6.02;100.00;100432.75;5104389;28;20221;-73
2024/01/27 07:12:39;;;;;;;0.80;0.80;;;;;;;5.88;100.00;100414.22;5107030;28;20205;-76
2024/01/27 07:15:07;;;;;;;0.70;0.70;;;;;;;5.71;100.00;100379.19;5082736;28;20263;-73
2024/01/27 07:17:33;;;;;;;0.80;0.80;;;;;;;5.83;100.00;100398.56;5057297;28;20239;-73
2024/01/27 07:20:00;;;;;;;1.33;1.33;;;;;;;6.08;100.00;100423.56;5091624;28;20693;-73
2024/01/27 07:22:27;;;;;;;0.90;0.90;;;;;;;6.07;100.00;100421.81;5089759;28;20229;-75
2024/01/27 07:24:55;;;;;;;0.90;0.90;;;;;;;6.07;100.00;100414.06;5092261;28;20221;-75
2024/01/27 07:27:23;;;;;;;0.70;0.70;;;;;;;5.35;100.00;100294.63;5089343;28;20203;-75
2024/01/27 07:29:51;;;;;;;0.80;0.80;;;;;;;5.65;100.00;100368.66;5068608;28;20238;-75
2024/01/27 07:32:18;;;;;;;0.80;0.80;;;;;;;5.70;100.00;100385.16;5090930;28;20209;-74
2024/01/27 07:34:45;;;;;;;1.30;1.30;;;;;;;5.84;100.00;100396.84;5083411;28;20206;-75
2024/01/27 07:37:12;;;;;;;0.70;0.70;;;;;;;5.94;100.00;100411.88;5089376;28;20209;-74
2024/01/27 07:39:39;;;;;;;1.10;1.10;;;;;;;5.89;100.00;100403.06;5090499;28;20202;-74
2024/01/27 07:42:06;;;;;;;0.60;0.60;;;;;;;5.00;100.00;100228.13;5090418;28;20210;-75
2024/01/27 07:44:33;;;;;;;0.80;0.80;;;;;;;5.85;100.00;100368.59;5055918;28;20202;-75
2024/01/27 07:47:01;;;;;;;1.60;1.57;;;;;;;6.26;100.00;100408.81;5091665;28;20202;-73
2024/01/27 07:49:28;;;;;;;1.07;1.07;;;;;;;6.30;100.00;100400.38;5090436;28;20206;-76
2024/01/27 07:51:55;;;;;;;1.10;1.10;;;;;;;6.36;100.00;100384.28;5081533;28;20238;-74
2024/01/27 07:54:22;;;;;;;1.07;1.00;;;;;;;6.53;100.00;100413.22;5082878;28;20206;-75
2024/01/27 07:56:49;;;;;;;0.60;0.60;;;;;;;6.60;100.00;100417.78;5086589;28;20220;-75
2024/01/27 07:59:16;;;;;;;0.97;0.97;;;;;;;6.52;100.00;100406.31;5088761;28;20194;-74
2024/01/27 08:01:43;;;;;;;0.70;0.70;;;;;;;5.57;100.00;100236.31;5085616;28;20202;-73
2024/01/27 08:04:11;;;;;;;0.70;0.70;;;;;;;6.47;100.00;100399.31;5079448;28;20226;-74
2024/01/27 08:06:47;;;;;;;2.70;2.40;;;;;;;6.63;100.00;100405.88;5081182;28;20233;-76
2024/01/27 08:09:14;;;;;;;1.00;1.00;;;;;;;6.61;100.00;100419.50;5091101;28;20209;-76
2024/01/27 08:11:41;;;;;;;0.70;0.70;;;;;;;7.18;100.00;100413.81;5078000;28;20210;-76
2024/01/27 08:14:08;;;;;;;0.90;0.90;;;;;;;6.96;100.00;100417.34;5079081;28;20211;-76
2024/01/27 08:16:34;;;;;;;0.63;0.63;;;;;;;6.84;100.00;100427.25;5085752;28;20229;-75
2024/01/27 08:19:01;;;;;;;2.53;2.30;;;;;;;6.85;100.00;100439.31;5091432;28;20202;-76
2024/01/27 08:21:29;;;;;;;0.60;0.60;;;;;;;6.76;100.00;100432.94;5080980;28;20198;-76
2024/01/27 08:23:56;;;;;;;0.70;0.70;;;;;;;6.23;100.00;100344.34;5076724;28;20226;-75
2024/01/27 08:26:23;;;;;;;0.90;0.90;;;;;;;6.90;100.00;100444.63;5089959;28;20198;-75
2024/01/27 08:28:50;;;;;;;1.77;1.77;;;;;;;6.99;100.00;100437.22;5076295;28;20244;-76
2024/01/27 08:31:17;;;;;;;0.50;0.50;;;;;;;6.98;100.00;100420.00;5080929;28;20290;-76
2024/01/27 08:33:44;;;;;;;0.60;0.60;;;;;;;7.14;100.00;100448.06;5072555;28;20276;-75
2024/01/27 08:36:14;;;;;;;0.70;0.70;;;;;;;7.11;100.00;100424.75;5079632;28;20202;-74
2024/01/27 08:38:42;;;;;;;0.70;0.70;;;;;;;7.31;100.00;100454.66;5087907;28;20674;-77
2024/01/27 08:41:09;;;;;;;0.80;0.80;;;;;;;7.17;100.00;100453.31;5078276;28;20207;-75
2024/01/27 08:43:36;;;;;;;0.80;0.80;;;;;;;7.15;100.00;100454.97;5080449;28;20260;-75
2024/01/27 08:46:02;;;;;;;1.07;1.07;;;;;;;7.21;100.00;100441.41;5084050;28;20276;-74
2024/01/27 08:48:29;;;;;;;1.90;1.87;;;;;;;7.16;100.00;100461.00;5082075;28;20206;-74
2024/01/27 08:50:56;;;;;;;0.70;0.70;;;;;;;7.06;100.00;100462.41;5080291;28;20205;-75
2024/01/27 08:53:23;;;;;;;2.47;2.00;;;;;;;7.14;100.00;100468.69;5071324;28;20198;-74
2024/01/27 08:55:51;;;;;;;0.70;0.70;;;;;;;7.18;100.00;100467.09;5071245;28;20195;-73
2024/01/27 08:58:17;;;;;;;0.70;0.70;;;;;;;7.16;100.00;100442.97;5071040;28;20195;-74
2024/01/27 09:00:44;;;;;;;0.80;0.80;;;;;;;7.13;100.00;100445.44;5052587;28;20206;-74
2024/01/27 09:03:12;;;;;;;1.93;1.83;;;;;;;7.33;100.00;100473.66;5071272;28;20267;-74
2024/01/27 09:05:40;;;;;;;1.63;1.53;;;;;;;7.42;100.00;100470.50;5071100;28;20203;-75
2024/01/27 09:08:07;;;;;;;0.90;0.90;;;;;;;7.31;100.00;100477.03;5077015;28;20623;-73
2024/01/27 09:10:34;;;;;;;1.43;1.43;;;;;;;7.16;100.00;100450.69;5071776;28;20658;-70
2024/01/27 09:13:02;;;;;;;0.70;0.70;;;;;;;7.13;100.00;100477.25;5087079;28;20202;-75
2024/01/27 09:15:29;;;;;;;1.10;1.10;;;;;;;7.34;100.00;100472.84;5090534;28;20194;-75
2024/01/27 09:17:56;;;;;;;0.80;0.80;;;;;;;7.11;100.00;100463.41;5085461;28;20271;-74
2024/01/27 09:20:23;;;;;;;2.60;2.40;;;;;;;6.93;100.00;100467.94;5081528;28;20213;-76
2024/01/27 09:22:50;;;;;;;0.90;0.90;;;;;;;6.68;100.00;100437.81;5071571;28;20221;-75
2024/01/27 09:25:16;;;;;;;1.90;1.73;;;;;;;6.85;100.00;100479.66;5055290;28;20206;-74
2024/01/27 09:27:43;;;;;;;22.30;1.73;;;;;;;6.77;100.00;100471.69;5076170;28;20202;-75
2024/01/27 09:30:12;;;;;;;0.70;0.70;;;;;;;5.92;100.00;100318.31;5090538;28;20202;-74
2024/01/27 09:32:40;;;;;;;1.00;1.00;;;;;;;6.69;100.00;100461.91;5090492;28;20202;-76
2024/01/27 09:35:07;;;;;;;1.10;1.10;;;;;;;6.70;100.00;100458.50;5091254;28;20202;-73
2024/01/27 09:37:34;;;;;;;3.97;2.57;;;;;;;6.66;100.00;100442.06;5090641;28;20213;-73
2024/01/27 09:40:02;;;;;;;1.37;1.37;;;;;;;6.70;100.00;100461.97;5090401;28;20210;-73
2024/01/27 09:42:30;;;;;;;0.70;0.70;;;;;;;6.20;100.00;100379.41;5089240;28;20207;-74
2024/01/27 09:44:58;;;;;;;1.00;1.00;;;;;;;6.87;100.00;100462.56;5089779;28;20205;-73
2024/01/27 09:47:27;;;;;;;0.70;0.70;;;;;;;6.77;100.00;100452.75;5089231;28;20210;-74
2024/01/27 09:49:54;;;;;;;1.00;1.00;;;;;;;6.76;100.00;100476.75;5075354;28;20202;-73
2024/01/27 09:52:21;;;;;;;0.80;0.80;;;;;;;6.80;100.00;100460.59;5084954;28;20218;-73
2024/01/27 09:54:48;;;;;;;0.87;0.87;;;;;;;6.56;100.00;100403.03;5081802;28;20240;-74
2024/01/27 09:57:18;;;;;;;1.87;1.77;;;;;;;6.93;100.00;100452.47;5086344;28;20217;-75
2024/01/27 09:59:46;;;;;;;1.67;1.67;;;;;;;7.03;100.00;100453.69;5093127;28;20203;-74
2024/01/27 10:02:15;;;;;;;0.90;0.90;;;;;;;7.12;100.00;100435.94;5077417;28;20276;-73
2024/01/27 10:04:44;;;;;;;1.00;1.00;;;;;;;7.39;100.00;100466.13;5072304;28;20243;-72
2024/01/27 10:07:11;;;;;;;0.90;0.90;;;;;;;6.72;100.00;100353.78;5089863;28;20572;-74
2024/01/27 10:09:40;;;;;;;0.70;0.70;;;;;;;6.64;100.00;100344.91;5089636;28;20202;-73
2024/01/27 10:12:10;;;;;;;1.67;1.57;;;;;;;7.27;100.00;100318.72;5046614;28;20302;-73
2024/01/27 10:14:40;;;;;;;0.70;0.70;;;;;;;6.64;100.00;100271.09;5084532;28;20224;-73
2024/01/27 10:17:10;;;;;;;0.90;0.90;;;;;;;7.07;100.00;100373.91;5084000;28;20651;-73
2024/01/27 10:19:37;;;;;;;1.83;1.83;;;;;;;7.57;100.00;100480.44;5076739;28;20209;-74
2024/01/27 10:22:05;;;;;;;0.93;0.93;;;;;;;7.69;100.00;100488.59;5089819;28;20194;-75
2024/01/27 10:24:32;;;;;;;3.40;1.57;;;;;;;7.55;100.00;100470.09;5090076;28;20251;-73
2024/01/27 10:27:01;;;;;;;4.23;2.80;;;;;;;7.57;100.00;100457.22;5088451;28;20202;-73
2024/01/27 10:29:28;;;;;;;1.20;1.20;;;;;;;7.53;100.00;100438.19;5071989;28;20207;-72
2024/01/27 10:31:54;;;;;;;1.83;1.67;;;;;;;7.79;100.00;100493.25;5080076;28;20224;-74
2024/01/27 10:34:21;;;;;;;1.03;1.03;;;;;;;7.53;100.00;100460.56;5090065;28;20206;-77
2024/01/27 10:36:48;;;;;;;0.70;0.70;;;;;;;7.74;100.00;100485.34;5070951;28;20878;-74
2024/01/27 10:39:22;;;;;;;0.70;0.70;;;;;;;7.98;100.00;100500.75;5075953;28;20214;-73
2024/01/27 10:41:50;;;;;;;0.80;0.80;;;;;;;7.26;100.00;100401.19;5090559;28;20210;-73
2024/01/27 10:44:18;;;;;;;0.97;0.97;;;;;;;7.67;100.00;100467.91;5070899;28;20218;-73
2024/01/27 10:46:46;;;;;;;0.80;0.80;;;;;;;7.63;100.00;100463.50;5080861;28;20231;-74
2024/01/27 10:49:14;;;;;;;0.90;0.90;;;;;;;7.76;100.00;100493.16;5091455;28;20206;-74
2024/01/27 10:51:46;;;;;;;1.20;1.20;;;;;;;7.86;100.00;100505.50;5082617;28;20277;-73
2024/01/27 10:54:16;;;;;;;1.13;1.13;;;;;;;7.83;100.00;100492.50;5093701;28;20661;-73
2024/01/27 10:56:47;;;;;;;0.70;0.70;;;;;;;8.01;100.00;100515.47;5093588;28;20257;-72
2024/01/27 10:59:15;;;;;;;1.20;1.20;;;;;;;7.63;100.00;100424.78;5093601;28;20198;-72
2024/01/27 11:01:42;;;;;;;0.90;0.90;;;;;;;8.27;100.00;100525.81;5091092;28;20267;-72
2024/01/27 11:04:13;;;;;;;1.20;1.20;;;;;;;8.33;100.00;100515.69;5090892;28;20705;-72
2024/01/27 11:06:41;;;;;;;0.87;0.87;;;;;;;8.59;100.00;100528.53;5079998;28;20257;-72
2024/01/27 11:09:11;;;;;;;0.80;0.80;;;;;;;8.38;100.00;100508.09;5080497;28;20653;-74
2024/01/27 11:11:39;;;;;;;0.70;0.70;;;;;;;8.21;100.00;100453.25;5093258;28;20707;-72
2024/01/27 11:14:09;;;;;;;2.93;1.43;;;;;;;8.11;100.00;100440.03;5092081;28;20263;-73
2024/01/27 11:16:38;;;;;;;1.50;1.50;;;;;;;8.45;100.00;100468.69;5092396;28;20210;-74
2024/01/27 11:19:05;;;;;;;1.47;1.43;;;;;;;8.55;100.00;100485.31;5093545;28;20222;-74
2024/01/27 11:21:32;;;;;;;1.40;1.20;;;;;;;9.02;100.00;100552.22;5093660;28;20198;-73
2024/01/27 11:23:59;;;;;;;0.70;0.70;;;;;;;9.02;100.00;100533.22;5093216;28;20286;-73
2024/01/27 11:26:26;;;;;;;0.70;0.70;;;;;;;9.13;100.00;100561.13;5092409;28;20203;-73